Time;durP1;ratioP1;P1;durP2;ratioP2;P2;SDS_P1;SDS_P2;PMS_P1;PMS_P2;Temp;Humidity;BMP_temperature;BMP_pressure;BME280_temperature;BME280_humidity;BME280_pressure;Samples;Min_cycle;Max_cycle;Signal;HPM_P1;HPM_P2
2023/01/09 00:01:52;;;;;;;6.32;2.58;;;7.00;99.90;;;;;;5075565;28;20043;-69
2023/01/09 00:04:19;;;;;;;4.15;2.17;;;7.00;99.90;;;;;;5074872;28;20052;-69
2023/01/09 00:06:52;;;;;;;4.72;2.72;;;7.10;99.90;;;;;;5073591;28;20491;-68
2023/01/09 00:09:20;;;;;;;9.48;2.53;;;7.10;99.90;;;;;;5075370;28;20381;-66
2023/01/09 00:11:47;;;;;;;4.60;2.65;;;7.10;99.90;;;;;;5074771;28;20083;-68
2023/01/09 00:14:14;;;;;;;5.95;2.53;;;7.10;99.90;;;;;;5075556;28;20066;-68
2023/01/09 00:16:41;;;;;;;3.38;2.28;;;7.10;99.90;;;;;;5075465;28;20097;-68
2023/01/09 00:19:09;;;;;;;6.90;2.13;;;7.10;99.90;;;;;;5071796;28;20062;-67
2023/01/09 00:21:37;;;;;;;4.35;2.30;;;7.00;99.90;;;;;;5075038;28;20048;-68
2023/01/09 00:24:05;;;;;;;3.38;1.73;;;6.90;99.90;;;;;;5074865;28;20047;-68
2023/01/09 00:26:32;;;;;;;3.17;1.40;;;6.70;99.90;;;;;;5074793;28;20055;-68
2023/01/09 00:28:59;;;;;;;3.20;1.50;;;6.60;99.90;;;;;;5075141;28;20048;-68
2023/01/09 00:31:26;;;;;;;4.03;1.20;;;6.60;99.90;;;;;;5074140;28;20450;-67
2023/01/09 00:33:58;;;;;;;4.07;1.40;;;6.50;99.90;;;;;;5093237;28;20052;-67
2023/01/09 00:36:26;;;;;;;2.15;1.00;;;6.40;99.90;;;;;;5073372;28;20055;-66
2023/01/09 00:38:53;;;;;;;3.75;1.08;;;6.40;99.90;;;;;;5091938;28;20043;-67
2023/01/09 00:41:25;;;;;;;4.88;1.20;;;6.40;99.90;;;;;;5074766;28;20085;-67
2023/01/09 00:43:57;;;;;;;2.33;1.00;;;6.40;99.90;;;;;;5091365;28;20048;-68
2023/01/09 00:46:31;;;;;;;2.72;1.02;;;6.40;99.90;;;;;;5073964;28;20136;-67
2023/01/09 00:48:59;;;;;;;2.63;0.85;;;6.40;99.90;;;;;;5072861;28;20052;-68
2023/01/09 00:51:28;;;;;;;2.45;1.42;;;6.40;99.90;;;;;;5074339;28;20055;-68
2023/01/09 00:53:55;;;;;;;4.25;1.00;;;6.30;99.90;;;;;;5074253;28;20047;-68
2023/01/09 00:56:22;;;;;;;1.73;0.93;;;6.30;99.90;;;;;;5074560;28;20055;-68
2023/01/09 00:58:51;;;;;;;1.40;0.90;;;6.30;99.90;;;;;;5092345;28;20067;-68
2023/01/09 01:01:18;;;;;;;2.95;0.90;;;6.20;99.90;;;;;;5091847;28;20047;-68
2023/01/09 01:03:45;;;;;;;4.13;1.17;;;6.20;99.90;;;;;;5074717;28;20450;-68
2023/01/09 01:08:57;;;;;;;1.85;1.00;;;6.10;99.90;;;;;;5073677;28;20048;-68
2023/01/09 01:11:25;;;;;;;2.45;1.23;;;6.10;99.90;;;;;;5092248;28;20506;-68
2023/01/09 01:13:51;;;;;;;1.83;0.90;;;6.10;99.90;;;;;;5073680;28;20048;-69
2023/01/09 01:16:18;;;;;;;2.75;0.95;;;6.10;99.90;;;;;;5074486;28;20060;-68
2023/01/09 01:18:46;;;;;;;2.50;0.90;;;6.10;99.90;;;;;;5074021;28;20048;-68
2023/01/09 01:21:14;;;;;;;3.05;1.08;;;6.00;99.90;;;;;;5091670;28;20113;-68
2023/01/09 01:23:41;;;;;;;2.55;1.00;;;6.00;99.90;;;;;;5072442;28;20487;-68
2023/01/09 01:26:12;;;;;;;1.50;0.80;;;6.00;99.90;;;;;;5074371;28;20105;-68
2023/01/09 01:28:39;;;;;;;2.13;1.10;;;6.00;99.90;;;;;;5073629;28;20048;-69
2023/01/09 01:31:07;;;;;;;1.30;0.85;;;6.00;99.90;;;;;;5090983;28;20040;-68
2023/01/09 01:33:34;;;;;;;1.15;0.80;;;6.00;99.90;;;;;;5074280;28;20442;-68
2023/01/09 01:36:03;;;;;;;1.60;1.00;;;6.00;99.90;;;;;;5071341;28;20055;-69
2023/01/09 01:38:30;;;;;;;1.88;0.98;;;6.00;99.90;;;;;;5073874;28;20063;-69
2023/01/09 01:40:57;;;;;;;4.15;1.20;;;6.10;99.90;;;;;;5091805;28;20048;-69
2023/01/09 01:43:25;;;;;;;2.30;1.15;;;6.10;99.90;;;;;;5072744;28;20109;-68
2023/01/09 01:45:52;;;;;;;4.05;1.70;;;6.10;99.90;;;;;;5074161;28;20060;-69
2023/01/09 01:48:23;;;;;;;3.85;1.40;;;6.10;99.90;;;;;;5071285;28;20048;-68
2023/01/09 01:50:54;;;;;;;3.15;1.60;;;6.10;99.90;;;;;;5091876;28;20047;-69
2023/01/09 01:53:22;;;;;;;;;;;6.10;99.90;;;;;;5074608;28;20131;-66
2023/01/09 01:56:00;;;;;;;3.95;2.10;;;6.20;99.90;;;;;;5071663;28;20338;-66
2023/01/09 01:58:29;;;;;;;3.50;1.63;;;6.20;99.90;;;;;;5089917;28;20060;-65
2023/01/09 02:00:56;;;;;;;6.22;1.88;;;6.20;99.90;;;;;;5073811;28;20098;-65
2023/01/09 02:03:27;;;;;;;5.25;2.20;;;6.20;99.90;;;;;;5073378;28;20104;-66
2023/01/09 02:05:54;;;;;;;5.05;1.88;;;6.30;99.90;;;;;;5089765;28;20111;-66
2023/01/09 02:08:21;;;;;;;4.35;2.15;;;6.30;99.90;;;;;;5074115;28;20048;-65
2023/01/09 02:10:50;;;;;;;4.75;2.00;;;6.30;99.90;;;;;;5072825;28;20041;-65
2023/01/09 02:13:17;;;;;;;5.90;2.80;;;6.30;99.90;;;;;;5073925;28;20139;-66
2023/01/09 02:15:58;;;;;;;6.10;2.30;;;6.30;99.90;;;;;;5091991;28;20097;-66
2023/01/09 02:18:34;;;;;;;;;;;6.30;99.90;;;;;;5073131;28;20051;-66
2023/01/09 02:21:07;;;;;;;5.57;2.33;;;6.20;99.90;;;;;;5091447;28;20326;-69
2023/01/09 02:24:04;;;;;;;5.35;2.20;;;6.20;99.90;;;;;;5073130;28;20538;-69
2023/01/09 02:26:48;;;;;;;4.55;2.05;;;6.10;99.90;;;;;;5073785;28;20404;-69
2023/01/09 02:30:01;;;;;;;3.55;2.30;;;6.10;99.90;;;;;;5072601;28;20051;-70
2023/01/09 02:32:42;;;;;;;5.82;2.20;;;6.10;99.90;;;;;;5072217;28;20052;-69
2023/01/09 02:35:23;;;;;;;4.95;2.42;;;6.10;99.90;;;;;;5071930;28;20071;-69
2023/01/09 02:38:00;;;;;;;4.35;2.28;;;6.00;99.90;;;;;;5073001;28;20091;-69
2023/01/09 02:40:33;;;;;;;7.53;2.30;;;5.90;99.90;;;;;;5072369;28;20089;-69
2023/01/09 02:43:01;;;;;;;4.40;2.13;;;5.90;99.90;;;;;;5076061;28;20101;-69
2023/01/09 02:45:28;;;;;;;5.07;2.20;;;5.90;99.90;;;;;;5092768;28;20051;-69
2023/01/09 02:47:56;;;;;;;4.18;2.40;;;5.80;99.90;;;;;;5077131;28;20101;-69
2023/01/09 02:50:33;;;;;;;4.32;2.13;;;5.80;99.90;;;;;;5094851;28;20554;-69
2023/01/09 02:53:30;;;;;;;3.72;2.28;;;5.80;99.90;;;;;;5093156;28;20134;-69
2023/01/09 02:56:06;;;;;;;7.28;2.47;;;5.70;99.90;;;;;;5076188;28;20052;-69
2023/01/09 02:58:51;;;;;;;5.15;2.15;;;5.70;99.90;;;;;;5076530;28;20446;-69
2023/01/09 03:01:26;;;;;;;4.78;2.70;;;5.60;99.90;;;;;;5075091;28;20490;-69
2023/01/09 03:04:02;;;;;;;9.50;2.25;;;5.60;99.90;;;;;;5075465;28;20422;-68
2023/01/09 03:06:34;;;;;;;6.60;2.50;;;5.60;99.90;;;;;;5092878;28;20051;-68
2023/01/09 03:09:05;;;;;;;9.15;2.80;;;5.50;99.90;;;;;;5074836;28;20052;-69
2023/01/09 03:11:39;;;;;;;3.70;2.20;;;5.50;99.90;;;;;;5094553;28;20545;-69
2023/01/09 03:14:11;;;;;;;6.05;2.22;;;5.50;99.90;;;;;;5075963;28;20048;-69
2023/01/09 03:16:39;;;;;;;5.43;3.08;;;5.40;99.90;;;;;;5076389;28;20109;-70
2023/01/09 03:19:11;;;;;;;5.28;3.20;;;5.40;99.90;;;;;;5076204;28;20055;-69
2023/01/09 03:21:39;;;;;;;4.72;2.33;;;5.40;99.90;;;;;;5074764;28;20054;-69
2023/01/09 03:24:06;;;;;;;5.80;2.78;;;5.30;99.90;;;;;;5076612;28;20052;-69
2023/01/09 03:26:34;;;;;;;4.47;2.47;;;5.30;99.90;;;;;;5076561;28;20043;-70
2023/01/09 03:29:01;;;;;;;8.98;3.22;;;5.30;99.90;;;;;;5073705;28;20502;-69
2023/01/09 03:31:28;;;;;;;6.53;2.80;;;5.30;99.90;;;;;;5076267;28;20399;-68
2023/01/09 03:33:55;;;;;;;7.43;2.88;;;5.20;99.90;;;;;;5075366;28;20048;-68
2023/01/09 03:36:24;;;;;;;6.50;2.55;;;5.20;99.90;;;;;;5076309;28;20056;-68
2023/01/09 03:38:51;;;;;;;6.32;2.72;;;5.20;99.90;;;;;;5094021;28;20070;-67
2023/01/09 03:41:18;;;;;;;5.60;3.05;;;5.10;99.90;;;;;;5073444;28;20075;-68
2023/01/09 03:43:46;;;;;;;6.53;2.88;;;5.10;99.90;;;;;;5076046;28;20086;-68
2023/01/09 03:46:13;;;;;;;5.13;2.63;;;5.10;99.90;;;;;;5073813;28;20135;-68
2023/01/09 03:48:41;;;;;;;5.13;2.80;;;5.10;99.90;;;;;;5075084;28;20051;-67
2023/01/09 03:51:08;;;;;;;11.15;3.60;;;5.10;99.90;;;;;;5093644;28;20489;-68
2023/01/09 03:53:36;;;;;;;4.95;2.70;;;5.00;99.90;;;;;;5092644;28;20565;-68
2023/01/09 03:56:03;;;;;;;8.13;2.75;;;5.00;99.90;;;;;;5075403;28;20048;-69
2023/01/09 03:58:30;;;;;;;5.07;2.70;;;5.00;99.90;;;;;;5073323;28;20052;-70
2023/01/09 04:01:03;;;;;;;5.07;2.80;;;4.90;99.90;;;;;;5075216;28;20048;-69
2023/01/09 04:03:30;;;;;;;7.93;2.90;;;4.80;99.90;;;;;;5075186;28;20108;-69
2023/01/09 04:05:57;;;;;;;5.57;3.08;;;4.80;99.90;;;;;;5073253;28;20043;-70
2023/01/09 04:08:24;;;;;;;7.07;3.00;;;4.80;99.90;;;;;;5075624;28;20496;-69
2023/01/09 04:10:52;;;;;;;5.25;3.00;;;4.80;99.90;;;;;;5072269;28;20537;-70
2023/01/09 04:13:19;;;;;;;8.60;3.70;;;4.80;99.90;;;;;;5093403;28;20048;-69
2023/01/09 04:15:46;;;;;;;7.05;3.58;;;4.70;99.90;;;;;;5093398;28;20052;-69
2023/01/09 04:18:13;;;;;;;7.75;4.18;;;4.70;99.90;;;;;;5074806;28;20461;-66
2023/01/09 04:20:41;;;;;;;8.30;3.45;;;4.70;99.90;;;;;;5075311;28;20052;-65
2023/01/09 04:23:08;;;;;;;10.63;3.95;;;4.70;99.90;;;;;;5074609;28;20063;-65
2023/01/09 04:25:35;;;;;;;7.95;3.60;;;4.60;99.90;;;;;;5093378;28;20152;-64
2023/01/09 04:28:03;;;;;;;7.95;3.83;;;4.60;99.90;;;;;;5075093;28;20052;-65
2023/01/09 04:30:30;;;;;;;6.70;3.67;;;4.60;99.90;;;;;;5092234;28;20488;-65
2023/01/09 04:32:57;;;;;;;7.93;3.90;;;4.60;99.90;;;;;;5093279;28;20089;-65
2023/01/09 04:35:24;;;;;;;8.98;4.30;;;4.50;99.90;;;;;;5092970;28;20508;-65
2023/01/09 04:37:51;;;;;;;9.50;4.80;;;4.50;99.90;;;;;;5092518;28;20113;-65
2023/01/09 04:40:18;;;;;;;9.18;4.60;;;4.50;99.90;;;;;;5092791;28;20055;-64
2023/01/09 04:42:45;;;;;;;11.25;4.20;;;4.50;99.90;;;;;;5074590;28;20055;-66
2023/01/09 04:45:16;;;;;;;8.07;4.28;;;4.50;99.90;;;;;;5074367;28;20043;-66
2023/01/09 04:47:44;;;;;;;7.28;4.45;;;4.50;99.90;;;;;;5092901;28;20101;-65
2023/01/09 04:50:12;;;;;;;8.77;4.55;;;4.50;99.90;;;;;;5092800;28;20123;-65
2023/01/09 04:52:39;;;;;;;10.45;4.93;;;4.50;99.90;;;;;;5071696;28;20097;-65
2023/01/09 04:55:07;;;;;;;12.10;4.40;;;4.40;99.90;;;;;;5092653;28;20078;-65
2023/01/09 04:57:34;;;;;;;8.95;4.70;;;4.40;99.90;;;;;;5092516;28;20048;-65
2023/01/09 05:00:01;;;;;;;10.27;4.80;;;4.40;99.90;;;;;;5091880;28;20048;-66
2023/01/09 05:02:29;;;;;;;13.57;5.93;;;4.40;99.90;;;;;;5092759;28;20044;-65
2023/01/09 05:04:56;;;;;;;11.25;5.40;;;4.40;99.90;;;;;;5074377;28;20487;-66
2023/01/09 05:07:23;;;;;;;7.55;4.72;;;4.40;99.90;;;;;;5074159;28;20051;-65
2023/01/09 05:09:50;;;;;;;11.55;5.03;;;4.40;99.90;;;;;;5071868;28;20055;-65
2023/01/09 05:12:17;;;;;;;16.20;6.05;;;4.40;99.90;;;;;;5091922;28;20040;-65
2023/01/09 05:14:44;;;;;;;9.63;5.75;;;4.50;99.90;;;;;;5090256;28;20552;-68
2023/01/09 05:17:11;;;;;;;9.10;5.53;;;4.50;99.90;;;;;;5092451;28;20048;-68
2023/01/09 05:19:39;;;;;;;11.73;5.70;;;4.40;99.90;;;;;;5091660;28;20048;-69
2023/01/09 05:22:06;;;;;;;12.57;6.68;;;4.40;99.90;;;;;;5074181;28;20044;-68
2023/01/09 05:24:33;;;;;;;11.00;6.03;;;4.40;99.90;;;;;;5092141;28;20051;-68
2023/01/09 05:27:02;;;;;;;15.23;6.72;;;4.40;99.90;;;;;;5073765;28;20101;-69
2023/01/09 05:29:29;;;;;;;14.30;7.25;;;4.40;99.90;;;;;;5091907;28;20453;-69
2023/01/09 05:31:56;;;;;;;11.32;6.90;;;4.40;99.90;;;;;;5090064;28;20065;-68
2023/01/09 05:34:23;;;;;;;12.13;7.63;;;4.40;99.90;;;;;;5073539;28;20066;-68
2023/01/09 05:36:52;;;;;;;12.15;7.95;;;4.50;99.90;;;;;;5074323;28;20048;-69
2023/01/09 05:39:18;;;;;;;14.13;7.47;;;4.50;99.90;;;;;;5091729;28;20063;-70
2023/01/09 05:41:45;;;;;;;14.27;8.82;;;4.60;99.90;;;;;;5073724;28;20105;-70
2023/01/09 05:44:12;;;;;;;15.82;9.07;;;4.70;99.90;;;;;;5092044;28;20399;-67
2023/01/09 05:46:39;;;;;;;13.50;8.75;;;4.70;99.90;;;;;;5091962;28;20518;-68
2023/01/09 05:49:06;;;;;;;14.57;9.32;;;4.70;99.90;;;;;;5091101;28;20044;-69
2023/01/09 05:51:33;;;;;;;15.90;9.80;;;4.80;99.90;;;;;;5091920;28;20135;-67
2023/01/09 05:54:03;;;;;;;16.38;9.55;;;4.80;99.90;;;;;;5071775;28;20097;-68
2023/01/09 05:56:30;;;;;;;14.48;9.38;;;4.90;99.90;;;;;;5073509;28;20059;-69
2023/01/09 05:58:57;;;;;;;19.38;10.90;;;5.00;99.90;;;;;;5070124;28;20496;-68
2023/01/09 06:01:24;;;;;;;17.58;11.90;;;5.00;99.90;;;;;;5070008;28;20083;-65
2023/01/09 06:03:51;;;;;;;23.92;12.35;;;5.10;99.90;;;;;;5070776;28;20443;-66
2023/01/09 06:06:18;;;;;;;18.48;11.20;;;5.10;99.90;;;;;;5065638;28;20056;-65
2023/01/09 06:08:45;;;;;;;22.27;12.88;;;5.20;99.90;;;;;;5057076;28;20056;-66
2023/01/09 06:11:13;;;;;;;24.33;13.07;;;5.20;99.90;;;;;;5066559;28;20041;-65
2023/01/09 06:13:40;;;;;;;19.55;12.82;;;5.30;99.90;;;;;;5064471;28;20102;-64
2023/01/09 06:16:07;;;;;;;19.50;12.60;;;5.30;99.90;;;;;;5062754;28;20052;-65
2023/01/09 06:18:34;;;;;;;18.70;12.57;;;5.40;99.90;;;;;;5069119;28;20059;-65
2023/01/09 06:21:01;;;;;;;18.25;12.32;;;5.40;99.90;;;;;;5068982;28;20098;-65
2023/01/09 06:23:28;;;;;;;19.45;13.30;;;5.40;99.90;;;;;;5068243;28;20048;-66
2023/01/09 06:25:55;;;;;;;19.30;12.07;;;5.40;99.90;;;;;;5071140;28;20060;-66
2023/01/09 06:28:23;;;;;;;18.95;12.48;;;5.40;99.90;;;;;;5067399;28;20040;-65
2023/01/09 06:30:51;;;;;;;22.30;12.75;;;5.50;99.90;;;;;;5069115;28;20060;-65
2023/01/09 06:33:19;;;;;;;20.50;11.65;;;5.50;99.90;;;;;;5072887;28;20079;-65
2023/01/09 06:35:46;;;;;;;22.45;10.95;;;5.50;99.90;;;;;;5068598;28;20098;-65
2023/01/09 06:38:13;;;;;;;20.27;11.20;;;5.50;99.90;;;;;;5066176;28;20060;-66
2023/01/09 06:40:40;;;;;;;17.75;11.07;;;5.50;99.90;;;;;;5067072;28;20060;-66
2023/01/09 06:43:07;;;;;;;17.60;10.52;;;5.50;99.90;;;;;;5067560;28;20044;-66
2023/01/09 06:45:35;;;;;;;20.80;11.15;;;5.50;99.90;;;;;;5068432;28;20044;-66
2023/01/09 06:48:02;;;;;;;17.15;10.73;;;5.50;99.90;;;;;;5069571;28;20374;-66
2023/01/09 06:50:29;;;;;;;15.75;11.00;;;5.50;99.90;;;;;;5066809;28;20045;-66
2023/01/09 06:52:56;;;;;;;16.38;10.35;;;5.50;99.90;;;;;;5069713;28;20078;-66
2023/01/09 06:55:25;;;;;;;15.32;10.75;;;5.50;99.90;;;;;;5069525;28;20044;-67
2023/01/09 06:57:52;;;;;;;19.33;10.82;;;5.70;99.90;;;;;;5067824;28;20067;-68
2023/01/09 07:00:19;;;;;;;16.50;10.57;;;5.50;99.90;;;;;;5067465;28;20048;-67
2023/01/09 07:02:47;;;;;;;15.50;10.00;;;5.60;99.90;;;;;;5069060;28;20525;-67
2023/01/09 07:05:14;;;;;;;16.48;10.63;;;5.50;99.90;;;;;;5065643;28;20516;-67
2023/01/09 07:07:41;;;;;;;17.52;10.82;;;5.50;99.90;;;;;;5070117;28;20094;-67
2023/01/09 07:10:10;;;;;;;18.67;9.82;;;5.50;99.90;;;;;;5069994;28;20040;-67
2023/01/09 07:12:37;;;;;;;14.38;9.90;;;5.50;99.90;;;;;;5069006;28;20105;-67
2023/01/09 07:15:04;;;;;;;14.35;9.88;;;5.50;99.90;;;;;;5064368;28;20077;-67
2023/01/09 07:17:31;;;;;;;17.50;9.73;;;5.50;99.90;;;;;;5066689;28;20044;-67
2023/01/09 07:20:00;;;;;;;17.23;10.10;;;5.50;99.90;;;;;;5065411;28;20048;-69
2023/01/09 07:22:27;;;;;;;15.27;10.55;;;5.50;99.90;;;;;;5071772;28;20067;-68
2023/01/09 07:24:54;;;;;;;18.77;10.50;;;5.50;99.90;;;;;;5066185;28;20060;-69
2023/01/09 07:27:21;;;;;;;15.90;9.98;;;5.50;99.90;;;;;;5066726;28;20053;-67
2023/01/09 07:29:49;;;;;;;15.23;10.07;;;5.50;99.90;;;;;;5067160;28;20048;-67
2023/01/09 07:32:15;;;;;;;15.93;9.50;;;5.50;99.90;;;;;;5067352;28;20055;-67
2023/01/09 07:34:42;;;;;;;18.63;10.18;;;5.50;99.90;;;;;;5069066;28;20126;-67
2023/01/09 07:37:11;;;;;;;14.77;9.10;;;5.50;99.90;;;;;;5068501;28;20110;-66
2023/01/09 07:39:37;;;;;;;15.70;8.80;;;5.50;99.90;;;;;;5066874;28;20063;-67
2023/01/09 07:42:04;;;;;;;12.85;8.95;;;5.50;99.90;;;;;;5064414;28;20059;-67
2023/01/09 07:44:31;;;;;;;18.73;8.98;;;5.50;99.90;;;;;;5066899;28;20106;-67
2023/01/09 07:46:58;;;;;;;13.18;9.00;;;5.50;99.90;;;;;;5064361;28;20435;-67
2023/01/09 07:49:25;;;;;;;17.15;9.43;;;5.50;99.90;;;;;;5065952;28;20473;-67
2023/01/09 07:51:52;;;;;;;18.00;9.57;;;5.40;99.90;;;;;;5071480;28;20048;-66
2023/01/09 07:54:20;;;;;;;14.85;8.38;;;5.40;99.90;;;;;;5066185;28;20405;-67
2023/01/09 07:56:47;;;;;;;12.90;9.07;;;5.40;99.90;;;;;;5067939;28;20052;-66
2023/01/09 07:59:14;;;;;;;18.77;8.63;;;5.40;99.90;;;;;;5083734;28;20135;-67
2023/01/09 08:01:41;;;;;;;12.80;6.97;;;5.40;99.90;;;;;;5082511;28;20039;-67
2023/01/09 08:04:08;;;;;;;10.90;7.25;;;5.30;99.90;;;;;;5087948;28;20048;-66
2023/01/09 08:06:35;;;;;;;9.52;6.82;;;5.30;99.90;;;;;;5072834;28;20048;-67
2023/01/09 08:09:02;;;;;;;14.10;6.80;;;5.30;99.90;;;;;;5070585;28;20050;-67
2023/01/09 08:11:31;;;;;;;9.85;7.05;;;5.20;99.90;;;;;;5085092;28;20047;-66
2023/01/09 08:13:57;;;;;;;10.73;6.95;;;5.20;99.90;;;;;;5071270;28;20492;-66
2023/01/09 08:16:24;;;;;;;11.35;6.43;;;5.20;99.90;;;;;;5083202;28;20057;-66
2023/01/09 08:18:51;;;;;;;15.55;7.30;;;5.30;99.90;;;;;;5087627;28;20052;-66
2023/01/09 08:21:18;;;;;;;16.77;6.90;;;5.30;99.90;;;;;;5068508;28;20048;-66
2023/01/09 08:23:45;;;;;;;9.13;6.40;;;5.20;99.90;;;;;;5067482;28;20056;-66
2023/01/09 08:26:12;;;;;;;11.38;6.45;;;5.20;99.90;;;;;;5092307;28;20052;-68
2023/01/09 08:28:40;;;;;;;10.40;6.30;;;5.30;99.90;;;;;;5091602;28;20557;-67
2023/01/09 08:31:07;;;;;;;13.40;7.05;;;5.20;99.90;;;;;;5091809;28;20059;-67
2023/01/09 08:33:34;;;;;;;9.57;6.10;;;5.30;99.90;;;;;;5093012;28;20048;-67
2023/01/09 08:36:01;;;;;;;8.77;6.28;;;5.30;99.90;;;;;;5092966;28;20043;-67
2023/01/09 08:38:28;;;;;;;11.80;6.53;;;5.30;99.90;;;;;;5074709;28;20052;-67
2023/01/09 08:40:55;;;;;;;12.68;6.22;;;5.30;99.90;;;;;;5091355;28;20051;-67
2023/01/09 08:49:01;;;;;;;8.50;6.13;;;5.40;99.90;;;;;;5072940;28;20044;-67
2023/01/09 08:51:28;;;;;;;8.07;5.50;;;5.40;99.90;;;;;;5073867;28;20515;-67
2023/01/09 08:53:55;;;;;;;10.02;6.00;;;5.40;99.90;;;;;;5074683;28;20044;-67
2023/01/09 08:56:22;;;;;;;8.00;5.68;;;5.50;99.90;;;;;;5074672;28;20056;-67
2023/01/09 08:58:49;;;;;;;11.10;6.28;;;5.50;99.90;;;;;;5073822;28;20116;-67
2023/01/09 09:01:17;;;;;;;9.35;5.18;;;5.50;99.90;;;;;;5074479;28;20044;-67
2023/01/09 09:03:44;;;;;;;10.88;5.80;;;5.60;99.90;;;;;;5092711;28;20048;-66
2023/01/09 09:06:11;;;;;;;11.98;5.95;;;5.60;99.90;;;;;;5073929;28;20052;-66
2023/01/09 09:08:38;;;;;;;12.05;5.78;;;5.60;99.90;;;;;;5074504;28;20412;-68
2023/01/09 09:11:05;;;;;;;7.63;5.28;;;5.70;99.90;;;;;;5074127;28;20055;-67
2023/01/09 09:13:31;;;;;;;8.15;5.03;;;5.70;99.90;;;;;;5073513;28;20056;-67
2023/01/09 09:15:58;;;;;;;10.23;5.05;;;5.80;99.90;;;;;;5092658;28;20051;-67
2023/01/09 09:18:27;;;;;;;8.73;4.57;;;5.80;99.90;;;;;;5092495;28;20048;-67
2023/01/09 09:20:53;;;;;;;7.00;4.15;;;5.90;99.90;;;;;;5073723;28;20064;-66
2023/01/09 09:23:22;;;;;;;12.90;4.93;;;5.90;99.90;;;;;;5072288;28;20044;-66
2023/01/09 09:25:49;;;;;;;9.07;4.50;;;5.90;99.90;;;;;;5073641;28;20059;-67
2023/01/09 09:28:15;;;;;;;10.68;4.70;;;5.90;99.90;;;;;;5092239;28;20402;-67
2023/01/09 09:30:42;;;;;;;8.38;4.20;;;6.00;99.90;;;;;;5073791;28;20054;-67
2023/01/09 09:33:09;;;;;;;8.45;4.47;;;6.00;99.90;;;;;;5091490;28;20048;-66
2023/01/09 09:35:38;;;;;;;8.77;4.43;;;6.00;99.90;;;;;;5092145;28;20039;-67
2023/01/09 09:38:05;;;;;;;9.95;4.43;;;6.10;99.90;;;;;;5073951;28;20056;-67
2023/01/09 09:40:49;;;;;;;9.18;3.85;;;6.10;99.90;;;;;;5073525;28;20078;-66
2023/01/09 09:46:41;;;;;;;9.52;4.63;;;6.10;99.90;;;;;;5072617;28;20048;-67
2023/01/09 09:49:14;;;;;;;8.18;3.92;;;6.10;99.90;;;;;;5090596;28;20044;-67
2023/01/09 09:51:56;;;;;;;9.77;4.78;;;6.10;99.90;;;;;;5074616;28;20098;-67
2023/01/09 09:54:31;;;;;;;9.05;3.95;;;6.20;99.90;;;;;;5095186;28;20044;-67
2023/01/09 09:57:00;;;;;;;11.77;3.88;;;6.20;99.90;;;;;;5078026;28;20389;-66
2023/01/09 09:59:32;;;;;;;8.60;4.32;;;6.20;99.90;;;;;;5095942;28;20443;-66
2023/01/09 10:02:04;;;;;;;7.50;4.00;;;6.20;99.90;;;;;;5074817;28;20047;-66
2023/01/09 10:04:33;;;;;;;6.30;3.90;;;6.30;99.90;;;;;;5093723;28;20055;-66
2023/01/09 10:07:08;;;;;;;8.75;4.22;;;6.30;99.90;;;;;;5077662;28;20055;-67
2023/01/09 10:09:45;;;;;;;9.43;3.90;;;6.40;99.90;;;;;;5095127;28;20101;-67
2023/01/09 10:12:26;;;;;;;7.10;4.30;;;6.70;99.90;;;;;;5078004;28;20047;-67
2023/01/09 10:14:53;;;;;;;10.40;4.25;;;6.50;99.90;;;;;;5075261;28;20051;-67
2023/01/09 10:17:53;;;;;;;6.25;3.58;;;6.50;99.90;;;;;;5077676;28;20510;-67
2023/01/09 10:20:41;;;;;;;4.63;3.33;;;6.60;99.90;;;;;;5034931;28;20117;-67
2023/01/09 10:23:23;;;;;;;10.57;3.40;;;6.60;99.90;;;;;;5092574;28;20048;-67
2023/01/09 10:25:56;;;;;;;9.07;4.20;;;6.60;99.90;;;;;;5077638;28;20056;-67
2023/01/09 10:28:43;;;;;;;8.95;3.60;;;6.70;99.90;;;;;;5093921;28;20052;-67
2023/01/09 10:31:19;;;;;;;8.10;3.78;;;6.70;99.90;;;;;;5092821;28;20044;-67
2023/01/09 10:34:00;;;;;;;6.53;3.42;;;6.70;99.90;;;;;;5075279;28;20048;-67
2023/01/09 10:36:54;;;;;;;7.32;3.53;;;6.70;99.90;;;;;;5093589;28;20099;-67
2023/01/09 10:39:25;;;;;;;7.40;3.38;;;6.80;99.90;;;;;;5094229;28;20040;-66
2023/01/09 10:41:58;;;;;;;5.43;3.63;;;6.80;99.90;;;;;;5076943;28;20048;-66
2023/01/09 10:44:33;;;;;;;6.43;3.50;;;6.80;99.90;;;;;;5068137;28;20063;-66
2023/01/09 10:47:02;;;;;;;7.70;3.83;;;6.80;99.90;;;;;;5064015;28;20076;-67
2023/01/09 10:49:29;;;;;;;6.00;3.10;;;6.90;99.90;;;;;;5086129;28;20085;-66
2023/01/09 10:52:05;;;;;;;6.70;3.42;;;7.00;99.90;;;;;;5087948;28;20433;-67
2023/01/09 10:54:33;;;;;;;5.78;3.17;;;7.00;99.90;;;;;;5087957;28;20040;-67
2023/01/09 10:57:09;;;;;;;5.22;3.00;;;7.00;99.90;;;;;;5068449;28;20060;-66
2023/01/09 10:59:36;;;;;;;6.32;3.25;;;7.00;99.90;;;;;;5090096;28;20044;-66
2023/01/09 11:02:03;;;;;;;9.90;3.60;;;7.00;99.90;;;;;;5087211;28;20056;-66
2023/01/09 11:04:34;;;;;;;9.15;3.20;;;7.10;99.90;;;;;;5090315;28;20043;-67
2023/01/09 11:07:06;;;;;;;7.97;3.47;;;7.10;99.90;;;;;;5088735;28;20059;-66
2023/01/09 11:09:56;;;;;;;7.28;3.30;;;7.10;99.90;;;;;;5071728;28;20052;-66
2023/01/09 11:12:25;;;;;;;7.10;3.90;;;7.10;99.90;;;;;;5069598;28;20075;-67
2023/01/09 11:14:52;;;;;;;5.85;3.25;;;7.20;99.90;;;;;;5071495;28;20084;-66
2023/01/09 11:17:21;;;;;;;8.10;3.10;;;7.10;99.90;;;;;;5069899;28;20488;-67
2023/01/09 11:20:02;;;;;;;8.55;3.85;;;7.10;99.90;;;;;;5090767;28;20051;-67
2023/01/09 11:22:29;;;;;;;5.22;3.03;;;7.10;99.90;;;;;;5087014;28;20122;-67
2023/01/09 11:25:02;;;;;;;11.65;3.55;;;7.10;99.90;;;;;;5069725;28;20052;-66
2023/01/09 11:27:29;;;;;;;5.97;3.22;;;7.10;99.90;;;;;;5068935;28;20051;-67
2023/01/09 11:30:25;;;;;;;8.35;3.60;;;7.00;99.90;;;;;;5074715;28;20055;-67
2023/01/09 11:32:52;;;;;;;7.57;3.55;;;7.10;99.90;;;;;;5066565;28;20055;-65
2023/01/09 11:35:23;;;;;;;7.28;3.53;;;7.10;99.90;;;;;;5072644;28;20059;-65
2023/01/09 11:38:01;;;;;;;6.22;4.40;;;7.10;99.90;;;;;;5085399;28;20044;-66
2023/01/09 11:40:32;;;;;;;5.78;3.50;;;7.10;99.90;;;;;;5083659;28;20091;-65
2023/01/09 11:43:06;;;;;;;7.75;3.60;;;7.10;99.90;;;;;;5068589;28;20040;-67
2023/01/09 11:45:35;;;;;;;8.50;3.75;;;7.00;99.90;;;;;;5087582;28;20052;-67
2023/01/09 11:48:03;;;;;;;6.03;4.30;;;7.00;99.90;;;;;;5090264;28;20071;-67
2023/01/09 11:50:31;;;;;;;8.85;4.18;;;7.00;99.90;;;;;;5084243;28;20040;-66
2023/01/09 11:53:14;;;;;;;8.32;4.15;;;7.00;99.90;;;;;;5088203;28;20445;-67
2023/01/09 11:55:44;;;;;;;7.15;4.13;;;7.00;99.90;;;;;;5067533;28;20052;-67
2023/01/09 11:58:15;;;;;;;7.03;3.65;;;7.00;99.90;;;;;;5086196;28;20450;-67
2023/01/09 12:00:54;;;;;;;7.28;3.85;;;7.00;99.90;;;;;;5070542;28;20056;-67
2023/01/09 12:03:35;;;;;;;9.63;4.07;;;7.00;99.90;;;;;;5068828;28;20059;-68
2023/01/09 12:06:13;;;;;;;7.82;4.25;;;7.00;99.90;;;;;;5070580;28;20385;-67
2023/01/09 12:08:52;;;;;;;8.82;4.15;;;7.10;99.90;;;;;;5086388;28;20386;-67
2023/01/09 12:11:28;;;;;;;6.43;4.68;;;7.00;99.90;;;;;;5086143;28;20397;-67
2023/01/09 12:14:09;;;;;;;7.22;5.20;;;7.00;99.90;;;;;;5070467;28;20040;-66
2023/01/09 12:16:42;;;;;;;6.93;3.72;;;7.00;99.90;;;;;;5061866;28;20051;-66
2023/01/09 12:19:36;;;;;;;9.35;3.92;;;7.10;99.90;;;;;;5070209;28;20052;-67
2023/01/09 12:22:13;;;;;;;7.65;3.90;;;7.00;99.90;;;;;;5067523;28;20044;-67
2023/01/09 12:24:53;;;;;;;8.73;4.55;;;7.10;99.90;;;;;;5084082;28;20113;-66
2023/01/09 12:27:32;;;;;;;6.57;4.03;;;7.10;99.90;;;;;;5087330;28;20044;-67
2023/01/09 12:30:20;;;;;;;7.03;4.13;;;7.10;99.90;;;;;;5088459;28;20051;-67
2023/01/09 12:32:58;;;;;;;6.55;4.57;;;7.10;99.90;;;;;;5084909;28;20063;-67
2023/01/09 12:35:36;;;;;;;9.30;4.75;;;7.10;99.90;;;;;;5072049;28;20048;-67
2023/01/09 12:38:16;;;;;;;8.60;4.55;;;7.10;99.90;;;;;;5070405;28;20734;-67
2023/01/09 12:41:02;;;;;;;9.23;4.85;;;7.10;99.90;;;;;;5078737;28;20514;-67
2023/01/09 12:43:43;;;;;;;9.23;4.50;;;7.10;99.90;;;;;;5073005;28;20048;-67
2023/01/09 12:46:15;;;;;;;;;;;7.10;99.90;;;;;;5083807;28;20048;-67
2023/01/09 12:49:06;;;;;;;9.50;4.65;;;7.10;99.90;;;;;;5073307;28;20375;-67
2023/01/09 12:51:38;;;;;;;8.25;4.55;;;7.00;99.90;;;;;;5070551;28;20044;-67
2023/01/09 12:54:10;;;;;;;8.20;5.10;;;7.00;99.90;;;;;;5083284;28;20055;-67
2023/01/09 12:56:40;;;;;;;8.93;5.05;;;7.00;99.90;;;;;;5068045;28;20085;-66
2023/01/09 12:59:28;;;;;;;8.55;5.10;;;7.00;99.90;;;;;;5086306;28;20050;-67
2023/01/09 13:02:03;;;;;;;11.45;5.20;;;7.00;99.90;;;;;;5083287;28;20079;-67
2023/01/09 13:04:35;;;;;;;10.88;5.22;;;7.10;99.90;;;;;;5065084;28;20040;-66
2023/01/09 13:07:07;;;;;;;20.48;7.32;;;7.10;99.90;;;;;;5064415;28;20492;-67
2023/01/09 13:09:41;;;;;;;21.25;6.88;;;7.10;99.90;;;;;;5066196;28;20138;-66
2023/01/09 13:12:12;;;;;;;11.70;5.10;;;7.10;99.90;;;;;;5065550;28;20044;-67
2023/01/09 13:14:54;;;;;;;8.35;5.82;;;7.10;99.90;;;;;;5073071;28;20122;-67
2023/01/09 13:17:27;;;;;;;17.98;6.72;;;7.20;99.90;;;;;;5068990;28;20075;-67
2023/01/09 13:19:54;;;;;;;12.38;6.72;;;7.20;99.90;;;;;;5082095;28;20101;-67
2023/01/09 13:22:23;;;;;;;9.38;6.07;;;7.20;99.90;;;;;;5085110;28;20396;-67